Roxbury, Maine
Current Conditions -  °F | °C
As of 11:52 AM on Thursday 27 Nov 2014 (Local Time) from KBML Reporting Station
Overcast Overcast  
Wind Chill: 18°   Ceiling: 2500
Heat Index: 27°   Visibility: 10mi
Dew Point: 19°   Wind: 9mph
Humidity: 72%   Direction: 330°NNW
Pressure: 29.92"   Gusts: NA
Location:  44.67°N, 70.59°W
Report Text: KBML 271652Z AUTO 33008KT 10SM OVC025 M03/M07 A2992 RMK AO2 SLP149 T10281072
Loading
Personal Weather Stations






























Interactive Weather Map New forecast layout! Learn more

10-Day Weather Forecast

Advertisements
Track Severe Weather on mobile